sensor_id;sensor_type;location;lat;lon;timestamp;temperature;humidity
4697;DHT22;2362;50.780;0.292;2022-12-07T00:01:41;3.00;99.90
4697;DHT22;2362;50.780;0.292;2022-12-07T00:04:10;3.00;99.90
4697;DHT22;2362;50.780;0.292;2022-12-07T00:06:41;2.90;99.90
4697;DHT22;2362;50.780;0.292;2022-12-07T00:09:11;2.90;99.90
4697;DHT22;2362;50.780;0.292;2022-12-07T00:11:36;2.90;99.90
4697;DHT22;2362;50.780;0.292;2022-12-07T00:14:07;2.80;99.90
4697;DHT22;2362;50.780;0.292;2022-12-07T00:16:34;2.80;99.90
4697;DHT22;2362;50.780;0.292;2022-12-07T00:19:00;2.80;99.90
4697;DHT22;2362;50.780;0.292;2022-12-07T00:21:29;2.80;99.90
4697;DHT22;2362;50.780;0.292;2022-12-07T00:23:56;2.80;99.90
4697;DHT22;2362;50.780;0.292;2022-12-07T00:26:24;2.80;99.90
4697;DHT22;2362;50.780;0.292;2022-12-07T00:28:52;2.80;99.90
4697;DHT22;2362;50.780;0.292;2022-12-07T00:31:20;2.80;99.90
4697;DHT22;2362;50.780;0.292;2022-12-07T00:33:46;2.80;99.90
4697;DHT22;2362;50.780;0.292;2022-12-07T00:36:16;2.80;99.90
4697;DHT22;2362;50.780;0.292;2022-12-07T00:38:42;2.90;99.90
4697;DHT22;2362;50.780;0.292;2022-12-07T00:41:11;2.80;99.90
4697;DHT22;2362;50.780;0.292;2022-12-07T00:43:38;2.80;99.90
4697;DHT22;2362;50.780;0.292;2022-12-07T00:46:04;2.80;99.90
4697;DHT22;2362;50.780;0.292;2022-12-07T00:48:30;2.80;99.90
4697;DHT22;2362;50.780;0.292;2022-12-07T00:50:59;2.80;99.90
4697;DHT22;2362;50.780;0.292;2022-12-07T00:53:25;2.80;99.90
4697;DHT22;2362;50.780;0.292;2022-12-07T00:55:51;2.80;99.90
4697;DHT22;2362;50.780;0.292;2022-12-07T00:58:18;2.80;99.90
4697;DHT22;2362;50.780;0.292;2022-12-07T01:00:43;2.90;99.90
4697;DHT22;2362;50.780;0.292;2022-12-07T01:03:11;2.80;99.90
4697;DHT22;2362;50.780;0.292;2022-12-07T01:05:38;2.90;99.90
4697;DHT22;2362;50.780;0.292;2022-12-07T01:08:04;2.80;99.90
4697;DHT22;2362;50.780;0.292;2022-12-07T01:10:30;2.80;99.90
4697;DHT22;2362;50.780;0.292;2022-12-07T01:12:57;2.70;99.90
4697;DHT22;2362;50.780;0.292;2022-12-07T01:15:23;2.60;99.90
4697;DHT22;2362;50.780;0.292;2022-12-07T01:17:49;2.60;99.90
4697;DHT22;2362;50.780;0.292;2022-12-07T01:20:15;2.50;99.90
4697;DHT22;2362;50.780;0.292;2022-12-07T01:23:06;2.50;99.90
4697;DHT22;2362;50.780;0.292;2022-12-07T01:26:02;2.50;99.90
4697;DHT22;2362;50.780;0.292;2022-12-07T01:28:29;2.40;99.90
4697;DHT22;2362;50.780;0.292;2022-12-07T01:31:06;2.40;99.90
4697;DHT22;2362;50.780;0.292;2022-12-07T01:33:35;2.40;99.90
4697;DHT22;2362;50.780;0.292;2022-12-07T01:36:08;2.30;99.90
4697;DHT22;2362;50.780;0.292;2022-12-07T01:38:34;2.30;99.90
4697;DHT22;2362;50.780;0.292;2022-12-07T01:41:01;2.30;99.90
4697;DHT22;2362;50.780;0.292;2022-12-07T01:43:29;2.30;99.90
4697;DHT22;2362;50.780;0.292;2022-12-07T01:45:55;2.30;99.90
4697;DHT22;2362;50.780;0.292;2022-12-07T01:48:34;2.30;99.90
4697;DHT22;2362;50.780;0.292;2022-12-07T01:51:05;2.30;99.90
4697;DHT22;2362;50.780;0.292;2022-12-07T01:53:38;2.30;99.90
4697;DHT22;2362;50.780;0.292;2022-12-07T01:56:06;2.30;99.90
4697;DHT22;2362;50.780;0.292;2022-12-07T01:58:32;2.30;99.90
4697;DHT22;2362;50.780;0.292;2022-12-07T02:00:58;2.30;99.90
4697;DHT22;2362;50.780;0.292;2022-12-07T02:03:32;2.30;99.90
4697;DHT22;2362;50.780;0.292;2022-12-07T02:06:00;2.30;99.90
4697;DHT22;2362;50.780;0.292;2022-12-07T02:08:26;2.30;99.90
4697;DHT22;2362;50.780;0.292;2022-12-07T02:10:52;2.30;99.90
4697;DHT22;2362;50.780;0.292;2022-12-07T02:13:30;2.30;99.90
4697;DHT22;2362;50.780;0.292;2022-12-07T02:16:05;2.30;99.90
4697;DHT22;2362;50.780;0.292;2022-12-07T02:21:13;2.20;99.90
4697;DHT22;2362;50.780;0.292;2022-12-07T02:26:47;2.30;99.90
4697;DHT22;2362;50.780;0.292;2022-12-07T02:29:52;2.30;99.90
4697;DHT22;2362;50.780;0.292;2022-12-07T02:35:12;2.20;99.90
4697;DHT22;2362;50.780;0.292;2022-12-07T02:45:50;2.20;99.90
4697;DHT22;2362;50.780;0.292;2022-12-07T02:48:19;2.10;99.90
4697;DHT22;2362;50.780;0.292;2022-12-07T02:50:52;2.10;99.90
4697;DHT22;2362;50.780;0.292;2022-12-07T02:53:39;2.10;99.90
4697;DHT22;2362;50.780;0.292;2022-12-07T02:59:10;2.10;99.90
4697;DHT22;2362;50.780;0.292;2022-12-07T03:04:33;2.20;99.90
4697;DHT22;2362;50.780;0.292;2022-12-07T03:07:08;2.20;99.90
4697;DHT22;2362;50.780;0.292;2022-12-07T03:09:43;2.20;99.90
4697;DHT22;2362;50.780;0.292;2022-12-07T03:12:16;2.20;99.90
4697;DHT22;2362;50.780;0.292;2022-12-07T03:14:53;2.10;99.90
4697;DHT22;2362;50.780;0.292;2022-12-07T03:17:29;2.10;99.90
4697;DHT22;2362;50.780;0.292;2022-12-07T03:19:59;2.20;99.90
4697;DHT22;2362;50.780;0.292;2022-12-07T03:22:30;2.10;99.90
4697;DHT22;2362;50.780;0.292;2022-12-07T03:25:04;2.20;99.90
4697;DHT22;2362;50.780;0.292;2022-12-07T03:27:37;2.10;99.90
4697;DHT22;2362;50.780;0.292;2022-12-07T03:30:24;2.10;99.90
4697;DHT22;2362;50.780;0.292;2022-12-07T03:33:04;2.10;99.90
4697;DHT22;2362;50.780;0.292;2022-12-07T03:35:36;2.10;99.90
4697;DHT22;2362;50.780;0.292;2022-12-07T03:38:15;2.10;99.90
4697;DHT22;2362;50.780;0.292;2022-12-07T03:40:55;2.10;99.90
4697;DHT22;2362;50.780;0.292;2022-12-07T03:43:23;2.10;99.90
4697;DHT22;2362;50.780;0.292;2022-12-07T03:48:34;2.10;99.90
4697;DHT22;2362;50.780;0.292;2022-12-07T03:51:10;2.10;99.90
4697;DHT22;2362;50.780;0.292;2022-12-07T03:53:46;2.00;99.90
4697;DHT22;2362;50.780;0.292;2022-12-07T03:56:14;2.00;99.90
4697;DHT22;2362;50.780;0.292;2022-12-07T03:58:41;2.10;99.90
4697;DHT22;2362;50.780;0.292;2022-12-07T04:01:07;2.00;99.90
4697;DHT22;2362;50.780;0.292;2022-12-07T04:03:32;2.00;99.90
4697;DHT22;2362;50.780;0.292;2022-12-07T04:05:59;2.00;99.90
4697;DHT22;2362;50.780;0.292;2022-12-07T04:08:25;2.00;99.90
4697;DHT22;2362;50.780;0.292;2022-12-07T04:10:50;1.90;99.90
4697;DHT22;2362;50.780;0.292;2022-12-07T04:13:41;2.00;99.90
4697;DHT22;2362;50.780;0.292;2022-12-07T04:16:32;1.90;99.90
4697;DHT22;2362;50.780;0.292;2022-12-07T04:19:30;2.00;99.90
4697;DHT22;2362;50.780;0.292;2022-12-07T04:21:57;2.00;99.90
4697;DHT22;2362;50.780;0.292;2022-12-07T04:24:24;1.90;99.90
4697;DHT22;2362;50.780;0.292;2022-12-07T04:26:50;1.90;99.90
4697;DHT22;2362;50.780;0.292;2022-12-07T04:29:16;1.90;99.90
4697;DHT22;2362;50.780;0.292;2022-12-07T04:31:42;1.90;99.90
4697;DHT22;2362;50.780;0.292;2022-12-07T04:34:08;1.90;99.90
4697;DHT22;2362;50.780;0.292;2022-12-07T04:36:35;1.90;99.90
4697;DHT22;2362;50.780;0.292;2022-12-07T04:39:01;1.90;99.90
4697;DHT22;2362;50.780;0.292;2022-12-07T04:41:27;1.90;99.90
4697;DHT22;2362;50.780;0.292;2022-12-07T04:43:57;1.90;99.90
4697;DHT22;2362;50.780;0.292;2022-12-07T04:46:24;1.90;99.90
4697;DHT22;2362;50.780;0.292;2022-12-07T04:48:51;1.90;99.90
4697;DHT22;2362;50.780;0.292;2022-12-07T04:51:20;2.00;99.90
4697;DHT22;2362;50.780;0.292;2022-12-07T04:53:47;1.90;99.90
4697;DHT22;2362;50.780;0.292;2022-12-07T04:56:15;1.90;99.90
4697;DHT22;2362;50.780;0.292;2022-12-07T04:58:42;1.90;99.90
4697;DHT22;2362;50.780;0.292;2022-12-07T05:01:08;1.90;99.90
4697;DHT22;2362;50.780;0.292;2022-12-07T05:03:34;2.00;99.90
4697;DHT22;2362;50.780;0.292;2022-12-07T05:05:59;2.00;99.90
4697;DHT22;2362;50.780;0.292;2022-12-07T05:08:25;2.00;99.90
4697;DHT22;2362;50.780;0.292;2022-12-07T05:10:51;2.10;99.90
4697;DHT22;2362;50.780;0.292;2022-12-07T05:13:16;2.10;99.90
4697;DHT22;2362;50.780;0.292;2022-12-07T05:15:42;2.00;99.90
4697;DHT22;2362;50.780;0.292;2022-12-07T05:18:10;2.10;99.90
4697;DHT22;2362;50.780;0.292;2022-12-07T05:20:38;2.10;99.90
4697;DHT22;2362;50.780;0.292;2022-12-07T05:23:04;2.00;99.90
4697;DHT22;2362;50.780;0.292;2022-12-07T05:25:29;2.00;99.90
4697;DHT22;2362;50.780;0.292;2022-12-07T05:27:56;2.10;99.90
4697;DHT22;2362;50.780;0.292;2022-12-07T05:30:23;2.10;99.90
4697;DHT22;2362;50.780;0.292;2022-12-07T05:32:48;2.10;99.90
4697;DHT22;2362;50.780;0.292;2022-12-07T05:35:14;2.10;99.90
4697;DHT22;2362;50.780;0.292;2022-12-07T05:37:40;2.00;99.90
4697;DHT22;2362;50.780;0.292;2022-12-07T05:40:06;2.00;99.90
4697;DHT22;2362;50.780;0.292;2022-12-07T05:42:32;2.00;99.90
4697;DHT22;2362;50.780;0.292;2022-12-07T05:44:57;2.00;99.90
4697;DHT22;2362;50.780;0.292;2022-12-07T05:47:23;2.00;99.90
4697;DHT22;2362;50.780;0.292;2022-12-07T05:49:49;2.00;99.90
4697;DHT22;2362;50.780;0.292;2022-12-07T05:52:18;2.00;99.90
4697;DHT22;2362;50.780;0.292;2022-12-07T05:54:44;2.00;99.90
4697;DHT22;2362;50.780;0.292;2022-12-07T05:57:10;2.00;99.90
4697;DHT22;2362;50.780;0.292;2022-12-07T05:59:35;2.00;99.90
4697;DHT22;2362;50.780;0.292;2022-12-07T06:02:04;2.00;99.90
4697;DHT22;2362;50.780;0.292;2022-12-07T06:04:33;2.00;99.90
4697;DHT22;2362;50.780;0.292;2022-12-07T06:06:59;2.00;99.90
4697;DHT22;2362;50.780;0.292;2022-12-07T06:09:26;2.00;99.90
4697;DHT22;2362;50.780;0.292;2022-12-07T06:11:52;2.00;99.90
4697;DHT22;2362;50.780;0.292;2022-12-07T06:14:50;2.10;99.90
4697;DHT22;2362;50.780;0.292;2022-12-07T06:17:16;2.00;99.90
4697;DHT22;2362;50.780;0.292;2022-12-07T06:19:42;1.90;99.90
4697;DHT22;2362;50.780;0.292;2022-12-07T06:22:09;1.90;99.90
4697;DHT22;2362;50.780;0.292;2022-12-07T06:25:01;1.90;99.90
4697;DHT22;2362;50.780;0.292;2022-12-07T06:27:27;1.90;99.90
4697;DHT22;2362;50.780;0.292;2022-12-07T06:29:53;1.90;99.90
4697;DHT22;2362;50.780;0.292;2022-12-07T06:32:18;1.90;99.90
4697;DHT22;2362;50.780;0.292;2022-12-07T06:34:44;1.90;99.90
4697;DHT22;2362;50.780;0.292;2022-12-07T06:37:10;1.80;99.90
4697;DHT22;2362;50.780;0.292;2022-12-07T06:39:35;1.90;99.90
4697;DHT22;2362;50.780;0.292;2022-12-07T06:42:01;1.90;99.90
4697;DHT22;2362;50.780;0.292;2022-12-07T06:44:27;1.90;99.90
4697;DHT22;2362;50.780;0.292;2022-12-07T06:46:53;2.00;99.90
4697;DHT22;2362;50.780;0.292;2022-12-07T06:49:44;2.10;99.90
4697;DHT22;2362;50.780;0.292;2022-12-07T06:52:10;2.10;99.90
4697;DHT22;2362;50.780;0.292;2022-12-07T06:54:35;2.10;99.90
4697;DHT22;2362;50.780;0.292;2022-12-07T06:57:01;2.00;99.90
4697;DHT22;2362;50.780;0.292;2022-12-07T06:59:26;2.00;99.90
4697;DHT22;2362;50.780;0.292;2022-12-07T07:01:52;2.00;99.90
4697;DHT22;2362;50.780;0.292;2022-12-07T07:04:18;2.10;99.90
4697;DHT22;2362;50.780;0.292;2022-12-07T07:06:43;2.10;99.90
4697;DHT22;2362;50.780;0.292;2022-12-07T07:09:09;2.10;99.90
4697;DHT22;2362;50.780;0.292;2022-12-07T07:11:34;2.00;99.90
4697;DHT22;2362;50.780;0.292;2022-12-07T07:14:00;2.00;99.90
4697;DHT22;2362;50.780;0.292;2022-12-07T07:16:29;1.90;99.90
4697;DHT22;2362;50.780;0.292;2022-12-07T07:18:57;1.90;99.90
4697;DHT22;2362;50.780;0.292;2022-12-07T07:21:23;1.90;99.90
4697;DHT22;2362;50.780;0.292;2022-12-07T07:23:49;1.90;99.90
4697;DHT22;2362;50.780;0.292;2022-12-07T07:26:14;2.00;99.90
4697;DHT22;2362;50.780;0.292;2022-12-07T07:28:40;2.00;99.90
4697;DHT22;2362;50.780;0.292;2022-12-07T07:31:06;2.00;99.90
4697;DHT22;2362;50.780;0.292;2022-12-07T07:33:31;2.00;99.90
4697;DHT22;2362;50.780;0.292;2022-12-07T07:35:57;2.10;99.90
4697;DHT22;2362;50.780;0.292;2022-12-07T07:38:22;2.10;99.90
4697;DHT22;2362;50.780;0.292;2022-12-07T07:40:48;2.10;99.90
4697;DHT22;2362;50.780;0.292;2022-12-07T07:43:14;2.10;99.90
4697;DHT22;2362;50.780;0.292;2022-12-07T07:45:40;2.10;99.90
4697;DHT22;2362;50.780;0.292;2022-12-07T07:48:06;2.20;99.90
4697;DHT22;2362;50.780;0.292;2022-12-07T07:50:32;2.20;99.90
4697;DHT22;2362;50.780;0.292;2022-12-07T07:52:58;2.30;99.90
4697;DHT22;2362;50.780;0.292;2022-12-07T07:58:42;2.30;99.90
4697;DHT22;2362;50.780;0.292;2022-12-07T08:01:08;2.20;99.90
4697;DHT22;2362;50.780;0.292;2022-12-07T08:03:34;2.30;99.90
4697;DHT22;2362;50.780;0.292;2022-12-07T08:06:02;2.30;99.90
4697;DHT22;2362;50.780;0.292;2022-12-07T08:08:28;2.40;99.90
4697;DHT22;2362;50.780;0.292;2022-12-07T08:10:54;2.40;99.90
4697;DHT22;2362;50.780;0.292;2022-12-07T08:13:19;2.40;99.90
4697;DHT22;2362;50.780;0.292;2022-12-07T08:15:47;2.30;99.90
4697;DHT22;2362;50.780;0.292;2022-12-07T08:18:14;2.30;99.90
4697;DHT22;2362;50.780;0.292;2022-12-07T08:21:06;2.30;99.90
4697;DHT22;2362;50.780;0.292;2022-12-07T08:23:35;2.40;99.90
4697;DHT22;2362;50.780;0.292;2022-12-07T08:26:02;2.50;99.90
4697;DHT22;2362;50.780;0.292;2022-12-07T08:28:28;2.50;99.90
4697;DHT22;2362;50.780;0.292;2022-12-07T08:31:08;2.50;99.90
4697;DHT22;2362;50.780;0.292;2022-12-07T08:33:36;2.60;99.90
4697;DHT22;2362;50.780;0.292;2022-12-07T08:36:11;2.60;99.90
4697;DHT22;2362;50.780;0.292;2022-12-07T08:38:38;2.60;99.90
4697;DHT22;2362;50.780;0.292;2022-12-07T08:41:05;2.60;99.90
4697;DHT22;2362;50.780;0.292;2022-12-07T08:43:31;2.70;99.90
4697;DHT22;2362;50.780;0.292;2022-12-07T08:46:28;2.70;99.90
4697;DHT22;2362;50.780;0.292;2022-12-07T08:49:17;2.80;99.90
4697;DHT22;2362;50.780;0.292;2022-12-07T08:51:44;2.80;99.90
4697;DHT22;2362;50.780;0.292;2022-12-07T08:54:15;2.80;99.90
4697;DHT22;2362;50.780;0.292;2022-12-07T08:56:42;2.90;99.90
4697;DHT22;2362;50.780;0.292;2022-12-07T08:59:08;2.90;99.90
4697;DHT22;2362;50.780;0.292;2022-12-07T09:01:34;2.90;99.90
4697;DHT22;2362;50.780;0.292;2022-12-07T09:03:59;2.90;99.90
4697;DHT22;2362;50.780;0.292;2022-12-07T09:06:25;2.90;99.90
4697;DHT22;2362;50.780;0.292;2022-12-07T09:08:55;3.00;99.90
4697;DHT22;2362;50.780;0.292;2022-12-07T09:11:22;3.00;99.90
4697;DHT22;2362;50.780;0.292;2022-12-07T09:13:47;3.10;99.90
4697;DHT22;2362;50.780;0.292;2022-12-07T09:16:13;3.10;99.90
4697;DHT22;2362;50.780;0.292;2022-12-07T09:18:39;3.10;99.90
4697;DHT22;2362;50.780;0.292;2022-12-07T09:21:04;3.20;99.90
4697;DHT22;2362;50.780;0.292;2022-12-07T09:23:30;3.20;99.90
4697;DHT22;2362;50.780;0.292;2022-12-07T09:26:01;3.20;99.90
4697;DHT22;2362;50.780;0.292;2022-12-07T09:28:27;3.30;99.90
4697;DHT22;2362;50.780;0.292;2022-12-07T09:30:53;3.40;99.90
4697;DHT22;2362;50.780;0.292;2022-12-07T09:33:19;3.40;99.90
4697;DHT22;2362;50.780;0.292;2022-12-07T09:35:46;3.40;99.90
4697;DHT22;2362;50.780;0.292;2022-12-07T09:38:12;3.40;99.90
4697;DHT22;2362;50.780;0.292;2022-12-07T09:40:38;3.50;99.90
4697;DHT22;2362;50.780;0.292;2022-12-07T09:43:04;3.50;99.90
4697;DHT22;2362;50.780;0.292;2022-12-07T09:45:35;3.50;99.90
4697;DHT22;2362;50.780;0.292;2022-12-07T09:48:03;3.50;99.90
4697;DHT22;2362;50.780;0.292;2022-12-07T09:50:30;3.60;99.90
4697;DHT22;2362;50.780;0.292;2022-12-07T09:53:08;3.60;99.90
4697;DHT22;2362;50.780;0.292;2022-12-07T09:55:36;3.60;99.90
4697;DHT22;2362;50.780;0.292;2022-12-07T09:58:03;3.70;99.90
4697;DHT22;2362;50.780;0.292;2022-12-07T10:00:29;3.70;99.90
4697;DHT22;2362;50.780;0.292;2022-12-07T10:02:57;3.70;99.90
4697;DHT22;2362;50.780;0.292;2022-12-07T10:07:55;3.80;99.90
4697;DHT22;2362;50.780;0.292;2022-12-07T10:10:32;3.80;99.90
4697;DHT22;2362;50.780;0.292;2022-12-07T10:13:05;3.80;99.90
4697;DHT22;2362;50.780;0.292;2022-12-07T10:15:53;3.80;99.90
4697;DHT22;2362;50.780;0.292;2022-12-07T10:18:35;3.90;99.90
4697;DHT22;2362;50.780;0.292;2022-12-07T10:21:11;4.00;99.90
4697;DHT22;2362;50.780;0.292;2022-12-07T10:23:43;4.00;99.90
4697;DHT22;2362;50.780;0.292;2022-12-07T10:29:22;4.00;99.90
4697;DHT22;2362;50.780;0.292;2022-12-07T10:32:04;4.10;99.90
4697;DHT22;2362;50.780;0.292;2022-12-07T10:34:33;4.10;99.90
4697;DHT22;2362;50.780;0.292;2022-12-07T10:42:25;4.20;99.90
4697;DHT22;2362;50.780;0.292;2022-12-07T11:01:41;4.20;99.90
4697;DHT22;2362;50.780;0.292;2022-12-07T11:07:04;4.30;99.90
4697;DHT22;2362;50.780;0.292;2022-12-07T11:15:22;4.50;99.90
4697;DHT22;2362;50.780;0.292;2022-12-07T11:23:48;4.60;99.90
4697;DHT22;2362;50.780;0.292;2022-12-07T11:37:50;4.50;99.90
4697;DHT22;2362;50.780;0.292;2022-12-07T11:42:46;4.60;99.90
4697;DHT22;2362;50.780;0.292;2022-12-07T11:45:25;4.50;99.90
4697;DHT22;2362;50.780;0.292;2022-12-07T11:48:34;4.50;99.90
4697;DHT22;2362;50.780;0.292;2022-12-07T11:51:00;4.60;99.90
4697;DHT22;2362;50.780;0.292;2022-12-07T11:53:35;4.60;99.90
4697;DHT22;2362;50.780;0.292;2022-12-07T11:58:49;4.60;99.90
4697;DHT22;2362;50.780;0.292;2022-12-07T12:06:41;4.80;99.90
4697;DHT22;2362;50.780;0.292;2022-12-07T12:14:40;4.80;99.90
4697;DHT22;2362;50.780;0.292;2022-12-07T12:17:15;4.90;99.90
4697;DHT22;2362;50.780;0.292;2022-12-07T12:22:39;5.00;99.90
4697;DHT22;2362;50.780;0.292;2022-12-07T12:25:29;5.00;99.90
4697;DHT22;2362;50.780;0.292;2022-12-07T12:27:58;4.90;99.90
4697;DHT22;2362;50.780;0.292;2022-12-07T12:33:04;4.90;99.90
4697;DHT22;2362;50.780;0.292;2022-12-07T12:35:36;4.90;99.90
4697;DHT22;2362;50.780;0.292;2022-12-07T12:38:25;4.90;99.90
4697;DHT22;2362;50.780;0.292;2022-12-07T12:40:53;4.90;99.90
4697;DHT22;2362;50.780;0.292;2022-12-07T12:48:57;5.00;99.90
4697;DHT22;2362;50.780;0.292;2022-12-07T12:51:41;5.10;99.90
4697;DHT22;2362;50.780;0.292;2022-12-07T12:54:26;5.10;99.90
4697;DHT22;2362;50.780;0.292;2022-12-07T12:59:59;5.00;99.90
4697;DHT22;2362;50.780;0.292;2022-12-07T13:26:41;4.90;99.90
4697;DHT22;2362;50.780;0.292;2022-12-07T13:29:13;4.90;99.90
4697;DHT22;2362;50.780;0.292;2022-12-07T13:31:53;4.90;99.90
4697;DHT22;2362;50.780;0.292;2022-12-07T13:34:38;5.00;99.90
4697;DHT22;2362;50.780;0.292;2022-12-07T13:37:32;5.00;99.90
4697;DHT22;2362;50.780;0.292;2022-12-07T13:40:24;5.10;99.90
4697;DHT22;2362;50.780;0.292;2022-12-07T13:43:01;5.10;99.90
4697;DHT22;2362;50.780;0.292;2022-12-07T13:45:32;5.10;99.90
4697;DHT22;2362;50.780;0.292;2022-12-07T13:48:35;5.10;99.90
4697;DHT22;2362;50.780;0.292;2022-12-07T13:51:03;5.10;99.90
4697;DHT22;2362;50.780;0.292;2022-12-07T13:53:29;5.10;99.90
4697;DHT22;2362;50.780;0.292;2022-12-07T13:55:59;5.20;99.90
4697;DHT22;2362;50.780;0.292;2022-12-07T13:58:27;5.10;99.90
4697;DHT22;2362;50.780;0.292;2022-12-07T14:00:55;5.10;99.90
4697;DHT22;2362;50.780;0.292;2022-12-07T14:03:30;5.00;99.90
4697;DHT22;2362;50.780;0.292;2022-12-07T14:06:16;5.00;99.90
4697;DHT22;2362;50.780;0.292;2022-12-07T14:08:45;5.00;99.90
4697;DHT22;2362;50.780;0.292;2022-12-07T14:11:20;5.10;99.90
4697;DHT22;2362;50.780;0.292;2022-12-07T14:13:58;5.30;99.90
4697;DHT22;2362;50.780;0.292;2022-12-07T14:16:35;5.40;99.90
4697;DHT22;2362;50.780;0.292;2022-12-07T14:19:04;5.30;99.90
4697;DHT22;2362;50.780;0.292;2022-12-07T14:21:34;5.20;99.90
4697;DHT22;2362;50.780;0.292;2022-12-07T14:24:18;5.10;99.90
4697;DHT22;2362;50.780;0.292;2022-12-07T14:26:47;5.00;99.90
4697;DHT22;2362;50.780;0.292;2022-12-07T14:31:52;4.90;99.90
4697;DHT22;2362;50.780;0.292;2022-12-07T14:34:22;4.90;99.90
4697;DHT22;2362;50.780;0.292;2022-12-07T14:36:48;4.90;99.90
4697;DHT22;2362;50.780;0.292;2022-12-07T14:39:18;4.80;99.90
4697;DHT22;2362;50.780;0.292;2022-12-07T14:41:44;4.80;99.90
4697;DHT22;2362;50.780;0.292;2022-12-07T14:44:16;4.70;99.90
4697;DHT22;2362;50.780;0.292;2022-12-07T14:46:43;4.70;99.90
4697;DHT22;2362;50.780;0.292;2022-12-07T14:49:08;4.70;99.90
4697;DHT22;2362;50.780;0.292;2022-12-07T14:51:36;4.60;99.90
4697;DHT22;2362;50.780;0.292;2022-12-07T14:54:05;4.60;99.90
4697;DHT22;2362;50.780;0.292;2022-12-07T14:56:31;4.50;99.90
4697;DHT22;2362;50.780;0.292;2022-12-07T14:58:57;4.50;99.90
4697;DHT22;2362;50.780;0.292;2022-12-07T15:01:23;4.40;99.90
4697;DHT22;2362;50.780;0.292;2022-12-07T15:03:49;4.40;99.90
4697;DHT22;2362;50.780;0.292;2022-12-07T15:06:16;4.40;99.90
4697;DHT22;2362;50.780;0.292;2022-12-07T15:08:42;4.30;99.90
4697;DHT22;2362;50.780;0.292;2022-12-07T15:11:15;4.30;99.90
4697;DHT22;2362;50.780;0.292;2022-12-07T15:13:41;4.30;99.90
4697;DHT22;2362;50.780;0.292;2022-12-07T15:16:26;4.20;99.90
4697;DHT22;2362;50.780;0.292;2022-12-07T15:18:51;4.20;99.90
4697;DHT22;2362;50.780;0.292;2022-12-07T15:21:17;4.20;99.90
4697;DHT22;2362;50.780;0.292;2022-12-07T15:23:43;4.20;99.90
4697;DHT22;2362;50.780;0.292;2022-12-07T15:26:10;4.10;99.90
4697;DHT22;2362;50.780;0.292;2022-12-07T15:28:36;4.00;99.90
4697;DHT22;2362;50.780;0.292;2022-12-07T15:31:02;4.00;99.90
4697;DHT22;2362;50.780;0.292;2022-12-07T15:33:27;3.90;99.90
4697;DHT22;2362;50.780;0.292;2022-12-07T15:35:53;3.90;99.90
4697;DHT22;2362;50.780;0.292;2022-12-07T15:38:19;3.80;99.90
4697;DHT22;2362;50.780;0.292;2022-12-07T15:40:48;3.70;99.90
4697;DHT22;2362;50.780;0.292;2022-12-07T15:43:14;3.70;99.90
4697;DHT22;2362;50.780;0.292;2022-12-07T15:45:58;3.60;99.90
4697;DHT22;2362;50.780;0.292;2022-12-07T15:48:25;3.60;99.90
4697;DHT22;2362;50.780;0.292;2022-12-07T15:50:50;3.50;99.90
4697;DHT22;2362;50.780;0.292;2022-12-07T15:53:16;3.50;99.90
4697;DHT22;2362;50.780;0.292;2022-12-07T15:55:42;3.50;99.90
4697;DHT22;2362;50.780;0.292;2022-12-07T15:58:08;3.50;99.90
4697;DHT22;2362;50.780;0.292;2022-12-07T16:00:33;3.50;99.90
4697;DHT22;2362;50.780;0.292;2022-12-07T16:02:59;3.40;99.90
4697;DHT22;2362;50.780;0.292;2022-12-07T16:05:27;3.30;99.90
4697;DHT22;2362;50.780;0.292;2022-12-07T16:07:52;3.20;99.90
4697;DHT22;2362;50.780;0.292;2022-12-07T16:10:18;3.20;99.90
4697;DHT22;2362;50.780;0.292;2022-12-07T16:12:45;3.10;99.90
4697;DHT22;2362;50.780;0.292;2022-12-07T16:15:10;3.10;99.90
4697;DHT22;2362;50.780;0.292;2022-12-07T16:17:36;3.00;99.90
4697;DHT22;2362;50.780;0.292;2022-12-07T16:20:02;2.90;99.90
4697;DHT22;2362;50.780;0.292;2022-12-07T16:22:28;2.90;99.90
4697;DHT22;2362;50.780;0.292;2022-12-07T16:24:55;2.90;99.90
4697;DHT22;2362;50.780;0.292;2022-12-07T16:27:20;2.80;99.90
4697;DHT22;2362;50.780;0.292;2022-12-07T16:29:46;2.80;99.90
4697;DHT22;2362;50.780;0.292;2022-12-07T16:32:12;2.80;99.90
4697;DHT22;2362;50.780;0.292;2022-12-07T16:34:39;2.80;99.90
4697;DHT22;2362;50.780;0.292;2022-12-07T16:37:05;2.80;99.90
4697;DHT22;2362;50.780;0.292;2022-12-07T16:39:30;2.70;99.90
4697;DHT22;2362;50.780;0.292;2022-12-07T16:41:56;2.70;99.90
4697;DHT22;2362;50.780;0.292;2022-12-07T16:44:22;2.70;99.90
4697;DHT22;2362;50.780;0.292;2022-12-07T16:46:48;2.70;99.90
4697;DHT22;2362;50.780;0.292;2022-12-07T16:49:15;2.70;99.90
4697;DHT22;2362;50.780;0.292;2022-12-07T16:51:41;2.60;99.90
4697;DHT22;2362;50.780;0.292;2022-12-07T16:54:14;2.60;99.90
4697;DHT22;2362;50.780;0.292;2022-12-07T16:56:40;2.60;99.90
4697;DHT22;2362;50.780;0.292;2022-12-07T16:59:07;2.60;99.90
4697;DHT22;2362;50.780;0.292;2022-12-07T17:01:33;2.50;99.90
4697;DHT22;2362;50.780;0.292;2022-12-07T17:04:00;2.50;99.90
4697;DHT22;2362;50.780;0.292;2022-12-07T17:06:27;2.50;99.90
4697;DHT22;2362;50.780;0.292;2022-12-07T17:08:54;2.50;99.90
4697;DHT22;2362;50.780;0.292;2022-12-07T17:11:25;2.50;99.90
4697;DHT22;2362;50.780;0.292;2022-12-07T17:13:52;2.50;99.90
4697;DHT22;2362;50.780;0.292;2022-12-07T17:16:37;2.40;99.90
4697;DHT22;2362;50.780;0.292;2022-12-07T17:19:08;2.40;99.90
4697;DHT22;2362;50.780;0.292;2022-12-07T17:21:34;2.40;99.90
4697;DHT22;2362;50.780;0.292;2022-12-07T17:24:00;2.40;99.90
4697;DHT22;2362;50.780;0.292;2022-12-07T17:26:28;2.40;99.90
4697;DHT22;2362;50.780;0.292;2022-12-07T17:28:53;2.40;99.90
4697;DHT22;2362;50.780;0.292;2022-12-07T17:31:22;2.40;99.90
4697;DHT22;2362;50.780;0.292;2022-12-07T17:33:48;2.40;99.90
4697;DHT22;2362;50.780;0.292;2022-12-07T17:36:19;2.40;99.90
4697;DHT22;2362;50.780;0.292;2022-12-07T17:38:46;2.40;99.90
4697;DHT22;2362;50.780;0.292;2022-12-07T17:41:21;2.50;99.90
4697;DHT22;2362;50.780;0.292;2022-12-07T17:44:07;2.50;99.90
4697;DHT22;2362;50.780;0.292;2022-12-07T17:46:34;2.50;99.90
4697;DHT22;2362;50.780;0.292;2022-12-07T17:49:00;2.50;99.90
4697;DHT22;2362;50.780;0.292;2022-12-07T17:51:26;2.50;99.90
4697;DHT22;2362;50.780;0.292;2022-12-07T17:54:11;2.50;99.90
4697;DHT22;2362;50.780;0.292;2022-12-07T17:56:37;2.50;99.90
4697;DHT22;2362;50.780;0.292;2022-12-07T17:59:04;2.60;99.90
4697;DHT22;2362;50.780;0.292;2022-12-07T18:01:31;2.60;99.90
4697;DHT22;2362;50.780;0.292;2022-12-07T18:03:57;2.60;99.90
4697;DHT22;2362;50.780;0.292;2022-12-07T18:06:23;2.60;99.90
4697;DHT22;2362;50.780;0.292;2022-12-07T18:08:48;2.60;99.90
4697;DHT22;2362;50.780;0.292;2022-12-07T18:11:14;2.60;99.90
4697;DHT22;2362;50.780;0.292;2022-12-07T18:13:40;2.60;99.90
4697;DHT22;2362;50.780;0.292;2022-12-07T18:16:12;2.60;99.90
4697;DHT22;2362;50.780;0.292;2022-12-07T18:18:38;2.60;99.90
4697;DHT22;2362;50.780;0.292;2022-12-07T18:21:09;2.60;99.90
4697;DHT22;2362;50.780;0.292;2022-12-07T18:23:39;2.60;99.90
4697;DHT22;2362;50.780;0.292;2022-12-07T18:26:05;2.50;99.90
4697;DHT22;2362;50.780;0.292;2022-12-07T18:28:31;2.50;99.90
4697;DHT22;2362;50.780;0.292;2022-12-07T18:30:57;2.40;99.90
4697;DHT22;2362;50.780;0.292;2022-12-07T18:33:23;2.40;99.90
4697;DHT22;2362;50.780;0.292;2022-12-07T18:35:49;2.40;99.90
4697;DHT22;2362;50.780;0.292;2022-12-07T18:38:15;2.40;99.90
4697;DHT22;2362;50.780;0.292;2022-12-07T18:40:42;2.40;99.90
4697;DHT22;2362;50.780;0.292;2022-12-07T18:43:08;2.40;99.90
4697;DHT22;2362;50.780;0.292;2022-12-07T18:45:44;2.30;99.90
4697;DHT22;2362;50.780;0.292;2022-12-07T18:48:14;2.30;99.90
4697;DHT22;2362;50.780;0.292;2022-12-07T18:50:41;2.40;99.90
4697;DHT22;2362;50.780;0.292;2022-12-07T18:53:07;2.40;99.90